sensor_id;sensor_type;location;lat;lon;timestamp;temperature;humidity
54576;DHT22;40472;53.486;14.542;2023-02-28T00:00:28;-3.10;99.90
54576;DHT22;40472;53.486;14.542;2023-02-28T00:02:54;-3.10;99.90
54576;DHT22;40472;53.486;14.542;2023-02-28T00:05:23;-3.20;99.90
54576;DHT22;40472;53.486;14.542;2023-02-28T00:07:49;-3.20;99.90
54576;DHT22;40472;53.486;14.542;2023-02-28T00:10:21;-3.10;99.90
54576;DHT22;40472;53.486;14.542;2023-02-28T00:12:49;-3.10;99.90
54576;DHT22;40472;53.486;14.542;2023-02-28T00:15:16;-3.20;99.90
54576;DHT22;40472;53.486;14.542;2023-02-28T00:17:41;-3.20;99.90
54576;DHT22;40472;53.486;14.542;2023-02-28T00:20:09;-3.20;99.90
54576;DHT22;40472;53.486;14.542;2023-02-28T00:22:37;-3.10;99.90
54576;DHT22;40472;53.486;14.542;2023-02-28T00:25:04;-3.00;99.90
54576;DHT22;40472;53.486;14.542;2023-02-28T00:27:30;-3.00;99.90
54576;DHT22;40472;53.486;14.542;2023-02-28T00:29:55;-3.00;99.90
54576;DHT22;40472;53.486;14.542;2023-02-28T00:32:21;-3.10;99.90
54576;DHT22;40472;53.486;14.542;2023-02-28T00:34:47;-3.10;99.90
54576;DHT22;40472;53.486;14.542;2023-02-28T00:37:13;-3.10;99.90
54576;DHT22;40472;53.486;14.542;2023-02-28T00:39:39;-3.10;99.90
54576;DHT22;40472;53.486;14.542;2023-02-28T00:42:06;-3.20;99.90
54576;DHT22;40472;53.486;14.542;2023-02-28T00:44:32;-3.30;99.90
54576;DHT22;40472;53.486;14.542;2023-02-28T00:46:59;-3.30;99.90
54576;DHT22;40472;53.486;14.542;2023-02-28T00:49:26;-3.40;99.90
54576;DHT22;40472;53.486;14.542;2023-02-28T00:51:54;-3.40;99.90
54576;DHT22;40472;53.486;14.542;2023-02-28T00:54:21;-3.40;99.90
54576;DHT22;40472;53.486;14.542;2023-02-28T00:56:47;-3.50;99.90
54576;DHT22;40472;53.486;14.542;2023-02-28T00:59:15;-3.50;99.90
54576;DHT22;40472;53.486;14.542;2023-02-28T01:01:41;-3.50;99.90
54576;DHT22;40472;53.486;14.542;2023-02-28T01:04:07;-3.50;99.90
54576;DHT22;40472;53.486;14.542;2023-02-28T01:06:33;-3.60;99.90
54576;DHT22;40472;53.486;14.542;2023-02-28T01:08:59;-3.60;99.90
54576;DHT22;40472;53.486;14.542;2023-02-28T01:11:25;-3.60;99.90
54576;DHT22;40472;53.486;14.542;2023-02-28T01:13:52;-3.60;99.90
54576;DHT22;40472;53.486;14.542;2023-02-28T01:16:19;-3.30;99.90
54576;DHT22;40472;53.486;14.542;2023-02-28T01:18:45;-3.10;99.90
54576;DHT22;40472;53.486;14.542;2023-02-28T01:21:14;-3.00;99.90
54576;DHT22;40472;53.486;14.542;2023-02-28T01:23:40;-2.90;99.90
54576;DHT22;40472;53.486;14.542;2023-02-28T01:26:08;-2.80;99.90
54576;DHT22;40472;53.486;14.542;2023-02-28T01:28:34;-2.70;99.90
54576;DHT22;40472;53.486;14.542;2023-02-28T01:31:00;-2.80;99.90
54576;DHT22;40472;53.486;14.542;2023-02-28T01:33:26;-2.80;99.90
54576;DHT22;40472;53.486;14.542;2023-02-28T01:36:12;-2.80;99.90
54576;DHT22;40472;53.486;14.542;2023-02-28T01:38:38;-2.90;99.90
54576;DHT22;40472;53.486;14.542;2023-02-28T01:41:05;-2.90;99.90
54576;DHT22;40472;53.486;14.542;2023-02-28T01:43:51;-3.00;99.90
54576;DHT22;40472;53.486;14.542;2023-02-28T01:46:17;-3.00;99.90
54576;DHT22;40472;53.486;14.542;2023-02-28T01:49:09;-3.00;99.90
54576;DHT22;40472;53.486;14.542;2023-02-28T01:51:42;-3.00;99.90
54576;DHT22;40472;53.486;14.542;2023-02-28T01:54:14;-2.90;99.90
54576;DHT22;40472;53.486;14.542;2023-02-28T01:56:51;-2.80;99.90
54576;DHT22;40472;53.486;14.542;2023-02-28T01:59:33;-2.70;99.90
54576;DHT22;40472;53.486;14.542;2023-02-28T02:02:01;-2.60;99.90
54576;DHT22;40472;53.486;14.542;2023-02-28T02:04:34;-2.50;99.90
54576;DHT22;40472;53.486;14.542;2023-02-28T02:07:03;-2.40;99.90
54576;DHT22;40472;53.486;14.542;2023-02-28T02:09:29;-2.40;99.90
54576;DHT22;40472;53.486;14.542;2023-02-28T02:11:55;-2.40;99.90
54576;DHT22;40472;53.486;14.542;2023-02-28T02:26:16;-2.30;99.90
54576;DHT22;40472;53.486;14.542;2023-02-28T02:36:42;-2.10;99.90
54576;DHT22;40472;53.486;14.542;2023-02-28T02:42:01;-2.10;99.90
54576;DHT22;40472;53.486;14.542;2023-02-28T02:44:53;-2.20;99.90
54576;DHT22;40472;53.486;14.542;2023-02-28T02:47:24;-2.30;99.90
54576;DHT22;40472;53.486;14.542;2023-02-28T02:49:53;-2.30;99.90
54576;DHT22;40472;53.486;14.542;2023-02-28T02:52:25;-2.30;99.90
54576;DHT22;40472;53.486;14.542;2023-02-28T02:54:55;-2.30;99.90
54576;DHT22;40472;53.486;14.542;2023-02-28T02:57:33;-2.30;99.90
54576;DHT22;40472;53.486;14.542;2023-02-28T03:00:02;-2.20;99.90
54576;DHT22;40472;53.486;14.542;2023-02-28T03:02:29;-2.10;99.90
54576;DHT22;40472;53.486;14.542;2023-02-28T03:05:02;-2.00;99.90
54576;DHT22;40472;53.486;14.542;2023-02-28T03:07:30;-1.90;99.90
54576;DHT22;40472;53.486;14.542;2023-02-28T03:09:57;-1.90;99.90
54576;DHT22;40472;53.486;14.542;2023-02-28T03:12:32;-1.90;99.90
54576;DHT22;40472;53.486;14.542;2023-02-28T03:20:27;-2.00;99.90
54576;DHT22;40472;53.486;14.542;2023-02-28T03:23:16;-2.10;99.90
54576;DHT22;40472;53.486;14.542;2023-02-28T03:28:22;-2.20;99.90
54576;DHT22;40472;53.486;14.542;2023-02-28T03:30:54;-2.20;99.90
54576;DHT22;40472;53.486;14.542;2023-02-28T03:33:28;-2.10;99.90
54576;DHT22;40472;53.486;14.542;2023-02-28T03:36:02;-2.00;99.90
54576;DHT22;40472;53.486;14.542;2023-02-28T03:41:35;-2.00;99.90
54576;DHT22;40472;53.486;14.542;2023-02-28T03:44:11;-2.00;99.90
54576;DHT22;40472;53.486;14.542;2023-02-28T03:46:44;-2.00;99.90
54576;DHT22;40472;53.486;14.542;2023-02-28T03:49:18;-2.10;99.90
54576;DHT22;40472;53.486;14.542;2023-02-28T03:51:45;-2.10;99.90
54576;DHT22;40472;53.486;14.542;2023-02-28T03:54:29;-2.10;99.90
54576;DHT22;40472;53.486;14.542;2023-02-28T03:57:18;-2.10;99.90
54576;DHT22;40472;53.486;14.542;2023-02-28T03:59:52;-2.10;99.90
54576;DHT22;40472;53.486;14.542;2023-02-28T04:02:19;-2.10;99.90
54576;DHT22;40472;53.486;14.542;2023-02-28T04:04:45;-2.10;99.90
54576;DHT22;40472;53.486;14.542;2023-02-28T04:07:14;-2.10;99.90
54576;DHT22;40472;53.486;14.542;2023-02-28T04:09:40;-2.10;99.90
54576;DHT22;40472;53.486;14.542;2023-02-28T04:12:06;-2.20;99.90
54576;DHT22;40472;53.486;14.542;2023-02-28T04:14:32;-2.30;99.90
54576;DHT22;40472;53.486;14.542;2023-02-28T04:16:58;-2.40;99.90
54576;DHT22;40472;53.486;14.542;2023-02-28T04:19:23;-2.50;99.90
54576;DHT22;40472;53.486;14.542;2023-02-28T04:21:51;-2.50;99.90
54576;DHT22;40472;53.486;14.542;2023-02-28T04:24:28;-2.60;99.90
54576;DHT22;40472;53.486;14.542;2023-02-28T04:26:55;-2.70;99.90
54576;DHT22;40472;53.486;14.542;2023-02-28T04:29:24;-2.80;99.90
54576;DHT22;40472;53.486;14.542;2023-02-28T04:31:50;-2.90;99.90
54576;DHT22;40472;53.486;14.542;2023-02-28T04:34:18;-3.00;99.90
54576;DHT22;40472;53.486;14.542;2023-02-28T04:36:45;-3.20;99.90
54576;DHT22;40472;53.486;14.542;2023-02-28T04:39:11;-3.30;99.90
54576;DHT22;40472;53.486;14.542;2023-02-28T04:41:37;-3.40;99.90
54576;DHT22;40472;53.486;14.542;2023-02-28T04:44:03;-3.50;99.90
54576;DHT22;40472;53.486;14.542;2023-02-28T04:46:29;-3.60;99.90
54576;DHT22;40472;53.486;14.542;2023-02-28T04:48:56;-3.70;99.90
54576;DHT22;40472;53.486;14.542;2023-02-28T04:51:21;-3.70;99.90
54576;DHT22;40472;53.486;14.542;2023-02-28T04:53:48;-3.70;99.90
54576;DHT22;40472;53.486;14.542;2023-02-28T04:56:16;-3.50;99.90
54576;DHT22;40472;53.486;14.542;2023-02-28T04:58:42;-3.40;99.90
54576;DHT22;40472;53.486;14.542;2023-02-28T05:03:45;-3.40;99.90
54576;DHT22;40472;53.486;14.542;2023-02-28T05:06:12;-3.50;99.90
54576;DHT22;40472;53.486;14.542;2023-02-28T05:08:39;-3.60;99.90
54576;DHT22;40472;53.486;14.542;2023-02-28T05:11:08;-3.70;99.90
54576;DHT22;40472;53.486;14.542;2023-02-28T05:13:37;-3.80;99.90
54576;DHT22;40472;53.486;14.542;2023-02-28T05:16:03;-3.90;99.90
54576;DHT22;40472;53.486;14.542;2023-02-28T05:18:28;-4.00;99.90
54576;DHT22;40472;53.486;14.542;2023-02-28T05:20:54;-4.00;99.90
54576;DHT22;40472;53.486;14.542;2023-02-28T05:23:20;-3.70;99.90
54576;DHT22;40472;53.486;14.542;2023-02-28T05:25:48;-3.30;99.90
54576;DHT22;40472;53.486;14.542;2023-02-28T05:28:13;-3.00;99.90
54576;DHT22;40472;53.486;14.542;2023-02-28T05:30:39;-2.90;99.90
54576;DHT22;40472;53.486;14.542;2023-02-28T05:33:05;-2.90;99.90
54576;DHT22;40472;53.486;14.542;2023-02-28T05:35:31;-3.10;99.90
54576;DHT22;40472;53.486;14.542;2023-02-28T05:38:02;-3.20;99.90
54576;DHT22;40472;53.486;14.542;2023-02-28T05:40:29;-3.40;99.90
54576;DHT22;40472;53.486;14.542;2023-02-28T05:42:54;-3.30;99.90
54576;DHT22;40472;53.486;14.542;2023-02-28T05:45:20;-3.20;99.90
54576;DHT22;40472;53.486;14.542;2023-02-28T05:47:46;-3.30;99.90
54576;DHT22;40472;53.486;14.542;2023-02-28T05:50:11;-3.40;99.90
54576;DHT22;40472;53.486;14.542;2023-02-28T05:52:37;-3.50;99.90
54576;DHT22;40472;53.486;14.542;2023-02-28T05:55:03;-3.60;99.90
54576;DHT22;40472;53.486;14.542;2023-02-28T05:57:29;-3.50;99.90
54576;DHT22;40472;53.486;14.542;2023-02-28T05:59:55;-3.10;99.90
54576;DHT22;40472;53.486;14.542;2023-02-28T06:02:21;-2.90;99.90
54576;DHT22;40472;53.486;14.542;2023-02-28T06:04:46;-2.80;99.90
54576;DHT22;40472;53.486;14.542;2023-02-28T06:07:12;-2.80;99.90
54576;DHT22;40472;53.486;14.542;2023-02-28T06:09:38;-2.70;99.90
54576;DHT22;40472;53.486;14.542;2023-02-28T06:12:05;-2.60;99.90
54576;DHT22;40472;53.486;14.542;2023-02-28T06:14:33;-2.60;99.90
54576;DHT22;40472;53.486;14.542;2023-02-28T06:17:00;-2.60;99.90
54576;DHT22;40472;53.486;14.542;2023-02-28T06:19:26;-2.70;99.90
54576;DHT22;40472;53.486;14.542;2023-02-28T06:21:52;-2.90;99.90
54576;DHT22;40472;53.486;14.542;2023-02-28T06:24:19;-3.00;99.90
54576;DHT22;40472;53.486;14.542;2023-02-28T06:26:45;-3.10;99.90
54576;DHT22;40472;53.486;14.542;2023-02-28T06:29:11;-3.30;99.90
54576;DHT22;40472;53.486;14.542;2023-02-28T06:31:37;-3.40;99.90
54576;DHT22;40472;53.486;14.542;2023-02-28T06:34:04;-3.40;99.90
54576;DHT22;40472;53.486;14.542;2023-02-28T06:36:30;-3.50;99.90
54576;DHT22;40472;53.486;14.542;2023-02-28T06:38:56;-3.50;99.90
54576;DHT22;40472;53.486;14.542;2023-02-28T06:41:26;-3.60;99.90
54576;DHT22;40472;53.486;14.542;2023-02-28T06:43:52;-3.60;99.90
54576;DHT22;40472;53.486;14.542;2023-02-28T06:46:19;-3.60;99.90
54576;DHT22;40472;53.486;14.542;2023-02-28T06:48:45;-3.60;99.90
54576;DHT22;40472;53.486;14.542;2023-02-28T06:51:18;-3.50;99.90
54576;DHT22;40472;53.486;14.542;2023-02-28T06:53:45;-3.40;99.90
54576;DHT22;40472;53.486;14.542;2023-02-28T06:56:13;-3.30;99.90
54576;DHT22;40472;53.486;14.542;2023-02-28T06:58:39;-3.20;99.90
54576;DHT22;40472;53.486;14.542;2023-02-28T07:01:06;-3.10;99.90
54576;DHT22;40472;53.486;14.542;2023-02-28T07:03:32;-3.00;99.90
54576;DHT22;40472;53.486;14.542;2023-02-28T07:05:58;-3.00;99.90
54576;DHT22;40472;53.486;14.542;2023-02-28T07:08:25;-3.00;99.90
54576;DHT22;40472;53.486;14.542;2023-02-28T07:10:55;-2.80;99.90
54576;DHT22;40472;53.486;14.542;2023-02-28T07:13:22;-2.70;99.90
54576;DHT22;40472;53.486;14.542;2023-02-28T07:16:00;-2.70;99.90
54576;DHT22;40472;53.486;14.542;2023-02-28T07:18:26;-2.60;99.90
54576;DHT22;40472;53.486;14.542;2023-02-28T07:20:52;-2.60;99.90
54576;DHT22;40472;53.486;14.542;2023-02-28T07:23:18;-2.50;99.90
54576;DHT22;40472;53.486;14.542;2023-02-28T07:25:44;-2.50;99.90
54576;DHT22;40472;53.486;14.542;2023-02-28T07:28:11;-2.40;99.90
54576;DHT22;40472;53.486;14.542;2023-02-28T07:30:37;-2.30;99.90
54576;DHT22;40472;53.486;14.542;2023-02-28T07:33:03;-2.30;99.90
54576;DHT22;40472;53.486;14.542;2023-02-28T07:35:29;-2.20;99.90
54576;DHT22;40472;53.486;14.542;2023-02-28T07:37:57;-2.10;99.90
54576;DHT22;40472;53.486;14.542;2023-02-28T07:40:23;-2.00;99.90
54576;DHT22;40472;53.486;14.542;2023-02-28T07:42:49;-2.00;99.90
54576;DHT22;40472;53.486;14.542;2023-02-28T07:45:15;-1.90;99.90
54576;DHT22;40472;53.486;14.542;2023-02-28T07:47:41;-1.90;99.90
54576;DHT22;40472;53.486;14.542;2023-02-28T07:50:09;-1.80;99.90
54576;DHT22;40472;53.486;14.542;2023-02-28T07:52:39;-1.70;99.90
54576;DHT22;40472;53.486;14.542;2023-02-28T07:55:07;-1.70;99.90
54576;DHT22;40472;53.486;14.542;2023-02-28T07:57:32;-1.50;99.90
54576;DHT22;40472;53.486;14.542;2023-02-28T07:59:58;-1.40;99.90
54576;DHT22;40472;53.486;14.542;2023-02-28T08:02:24;-1.20;99.90
54576;DHT22;40472;53.486;14.542;2023-02-28T08:04:50;-1.10;99.90
54576;DHT22;40472;53.486;14.542;2023-02-28T08:07:17;-0.90;99.90
54576;DHT22;40472;53.486;14.542;2023-02-28T08:09:44;-0.80;99.90
54576;DHT22;40472;53.486;14.542;2023-02-28T08:12:10;-0.60;99.90
54576;DHT22;40472;53.486;14.542;2023-02-28T08:14:36;-0.50;99.90
54576;DHT22;40472;53.486;14.542;2023-02-28T08:17:03;-0.50;99.90
54576;DHT22;40472;53.486;14.542;2023-02-28T08:19:29;-0.40;99.90
54576;DHT22;40472;53.486;14.542;2023-02-28T08:21:56;-0.40;99.90
54576;DHT22;40472;53.486;14.542;2023-02-28T08:24:22;-0.30;99.90
54576;DHT22;40472;53.486;14.542;2023-02-28T08:26:48;-0.30;99.90
54576;DHT22;40472;53.486;14.542;2023-02-28T08:29:14;0.00;99.90
54576;DHT22;40472;53.486;14.542;2023-02-28T08:31:39;0.40;99.90
54576;DHT22;40472;53.486;14.542;2023-02-28T08:34:10;0.50;99.90
54576;DHT22;40472;53.486;14.542;2023-02-28T08:36:37;0.40;99.90
54576;DHT22;40472;53.486;14.542;2023-02-28T08:39:03;0.60;99.90
54576;DHT22;40472;53.486;14.542;2023-02-28T08:41:29;0.70;99.90
54576;DHT22;40472;53.486;14.542;2023-02-28T08:43:55;0.70;99.90
54576;DHT22;40472;53.486;14.542;2023-02-28T08:46:20;0.70;99.90
54576;DHT22;40472;53.486;14.542;2023-02-28T08:48:46;0.80;99.90
54576;DHT22;40472;53.486;14.542;2023-02-28T08:51:16;0.80;99.90
54576;DHT22;40472;53.486;14.542;2023-02-28T08:53:56;0.80;99.90
54576;DHT22;40472;53.486;14.542;2023-02-28T08:56:23;0.90;99.90
54576;DHT22;40472;53.486;14.542;2023-02-28T08:58:49;1.00;99.90
54576;DHT22;40472;53.486;14.542;2023-02-28T09:01:21;1.10;99.90
54576;DHT22;40472;53.486;14.542;2023-02-28T09:03:48;1.00;99.90
54576;DHT22;40472;53.486;14.542;2023-02-28T09:06:15;1.10;99.90
54576;DHT22;40472;53.486;14.542;2023-02-28T09:08:42;1.30;99.90
54576;DHT22;40472;53.486;14.542;2023-02-28T09:11:09;1.40;99.90
54576;DHT22;40472;53.486;14.542;2023-02-28T09:13:34;1.50;99.90
54576;DHT22;40472;53.486;14.542;2023-02-28T09:16:02;1.30;99.90
54576;DHT22;40472;53.486;14.542;2023-02-28T09:18:29;1.30;99.90
54576;DHT22;40472;53.486;14.542;2023-02-28T09:20:55;1.50;99.90
54576;DHT22;40472;53.486;14.542;2023-02-28T09:23:21;1.50;99.90
54576;DHT22;40472;53.486;14.542;2023-02-28T09:25:52;1.50;99.90
54576;DHT22;40472;53.486;14.542;2023-02-28T09:28:19;1.50;99.90
54576;DHT22;40472;53.486;14.542;2023-02-28T09:30:47;1.50;99.90
54576;DHT22;40472;53.486;14.542;2023-02-28T09:33:14;1.60;99.90
54576;DHT22;40472;53.486;14.542;2023-02-28T09:35:40;1.50;99.90
54576;DHT22;40472;53.486;14.542;2023-02-28T09:38:06;1.70;99.90
54576;DHT22;40472;53.486;14.542;2023-02-28T09:40:39;1.90;99.90
54576;DHT22;40472;53.486;14.542;2023-02-28T09:43:13;1.80;99.90
54576;DHT22;40472;53.486;14.542;2023-02-28T09:45:41;2.00;99.90
54576;DHT22;40472;53.486;14.542;2023-02-28T09:48:18;1.90;99.90
54576;DHT22;40472;53.486;14.542;2023-02-28T09:50:52;1.90;99.90
54576;DHT22;40472;53.486;14.542;2023-02-28T09:53:23;1.80;99.90
54576;DHT22;40472;53.486;14.542;2023-02-28T09:55:57;1.90;99.90
54576;DHT22;40472;53.486;14.542;2023-02-28T10:03:57;2.20;99.90
54576;DHT22;40472;53.486;14.542;2023-02-28T10:06:48;2.20;99.90
54576;DHT22;40472;53.486;14.542;2023-02-28T10:09:24;2.20;99.90
54576;DHT22;40472;53.486;14.542;2023-02-28T10:11:50;2.20;99.90
54576;DHT22;40472;53.486;14.542;2023-02-28T10:14:23;2.20;99.90
54576;DHT22;40472;53.486;14.542;2023-02-28T10:16:55;2.30;99.90
54576;DHT22;40472;53.486;14.542;2023-02-28T10:24:55;2.80;99.90
54576;DHT22;40472;53.486;14.542;2023-02-28T10:27:30;2.90;99.90
54576;DHT22;40472;53.486;14.542;2023-02-28T10:29:59;2.90;99.90
54576;DHT22;40472;53.486;14.542;2023-02-28T10:32:32;2.90;99.90
54576;DHT22;40472;53.486;14.542;2023-02-28T10:37:33;2.80;99.90
54576;DHT22;40472;53.486;14.542;2023-02-28T10:40:07;2.80;99.90
54576;DHT22;40472;53.486;14.542;2023-02-28T10:43:04;2.80;99.90
54576;DHT22;40472;53.486;14.542;2023-02-28T10:45:34;2.90;99.90
54576;DHT22;40472;53.486;14.542;2023-02-28T10:48:03;3.00;99.90
54576;DHT22;40472;53.486;14.542;2023-02-28T11:01:41;3.10;99.90
54576;DHT22;40472;53.486;14.542;2023-02-28T11:07:00;3.40;99.90
54576;DHT22;40472;53.486;14.542;2023-02-28T11:09:39;3.50;99.90
54576;DHT22;40472;53.486;14.542;2023-02-28T11:12:29;3.60;99.90
54576;DHT22;40472;53.486;14.542;2023-02-28T11:15:01;3.50;99.90
54576;DHT22;40472;53.486;14.542;2023-02-28T11:17:30;3.40;99.90
54576;DHT22;40472;53.486;14.542;2023-02-28T11:20:04;3.30;99.90
54576;DHT22;40472;53.486;14.542;2023-02-28T11:22:37;3.30;99.90
54576;DHT22;40472;53.486;14.542;2023-02-28T11:25:28;3.40;99.90
54576;DHT22;40472;53.486;14.542;2023-02-28T11:28:01;3.40;99.90
54576;DHT22;40472;53.486;14.542;2023-02-28T11:30:40;3.30;99.90
54576;DHT22;40472;53.486;14.542;2023-02-28T11:33:47;3.20;99.90
54576;DHT22;40472;53.486;14.542;2023-02-28T11:36:30;3.20;99.90
54576;DHT22;40472;53.486;14.542;2023-02-28T11:39:01;3.20;99.90
54576;DHT22;40472;53.486;14.542;2023-02-28T11:42:04;3.20;99.90
54576;DHT22;40472;53.486;14.542;2023-02-28T11:47:29;3.60;99.90
54576;DHT22;40472;53.486;14.542;2023-02-28T11:53:00;3.60;99.90
54576;DHT22;40472;53.486;14.542;2023-02-28T11:55:36;3.60;99.90
54576;DHT22;40472;53.486;14.542;2023-02-28T12:02:15;3.70;99.90
54576;DHT22;40472;53.486;14.542;2023-02-28T12:04:21;3.70;99.90
54576;DHT22;40472;53.486;14.542;2023-02-28T12:06:56;3.80;99.90
54576;DHT22;40472;53.486;14.542;2023-02-28T12:10:44;3.90;99.90
54576;DHT22;40472;53.486;14.542;2023-02-28T12:13:06;3.90;99.90
54576;DHT22;40472;53.486;14.542;2023-02-28T12:21:44;4.00;99.90
54576;DHT22;40472;53.486;14.542;2023-02-28T12:27:09;4.30;99.90
54576;DHT22;40472;53.486;14.542;2023-02-28T12:29:57;4.20;99.90
54576;DHT22;40472;53.486;14.542;2023-02-28T12:32:32;4.20;99.90
54576;DHT22;40472;53.486;14.542;2023-02-28T12:35:04;4.20;99.90
54576;DHT22;40472;53.486;14.542;2023-02-28T12:40:22;4.40;99.90
54576;DHT22;40472;53.486;14.542;2023-02-28T12:42:55;4.30;99.90
54576;DHT22;40472;53.486;14.542;2023-02-28T12:45:53;4.30;99.90
54576;DHT22;40472;53.486;14.542;2023-02-28T12:49:12;4.30;99.90
54576;DHT22;40472;53.486;14.542;2023-02-28T12:51:12;4.30;99.90
54576;DHT22;40472;53.486;14.542;2023-02-28T12:57:22;4.20;99.90
54576;DHT22;40472;53.486;14.542;2023-02-28T12:59:56;4.40;99.90
54576;DHT22;40472;53.486;14.542;2023-02-28T13:02:46;4.40;99.90
54576;DHT22;40472;53.486;14.542;2023-02-28T13:10:22;4.40;99.90
54576;DHT22;40472;53.486;14.542;2023-02-28T13:12:51;4.40;99.90
54576;DHT22;40472;53.486;14.542;2023-02-28T13:15:22;4.30;99.90
54576;DHT22;40472;53.486;14.542;2023-02-28T13:17:52;4.40;99.90
54576;DHT22;40472;53.486;14.542;2023-02-28T13:20:47;4.40;99.90
54576;DHT22;40472;53.486;14.542;2023-02-28T13:23:57;4.40;99.90
54576;DHT22;40472;53.486;14.542;2023-02-28T13:34:32;4.50;99.90
54576;DHT22;40472;53.486;14.542;2023-02-28T13:39:48;5.00;99.90
54576;DHT22;40472;53.486;14.542;2023-02-28T13:42:34;5.10;99.90
54576;DHT22;40472;53.486;14.542;2023-02-28T13:47:42;5.20;99.90
54576;DHT22;40472;53.486;14.542;2023-02-28T13:55:45;5.40;99.90
54576;DHT22;40472;53.486;14.542;2023-02-28T14:04:19;5.30;99.90
54576;DHT22;40472;53.486;14.542;2023-02-28T14:06:54;5.10;99.90
54576;DHT22;40472;53.486;14.542;2023-02-28T14:10:00;5.20;99.90
54576;DHT22;40472;53.486;14.542;2023-02-28T14:18:16;4.80;99.90
54576;DHT22;40472;53.486;14.542;2023-02-28T14:20:44;4.90;99.90
54576;DHT22;40472;53.486;14.542;2023-02-28T14:25:59;5.00;99.90
54576;DHT22;40472;53.486;14.542;2023-02-28T14:31:23;5.10;99.90
54576;DHT22;40472;53.486;14.542;2023-02-28T14:36:44;5.00;99.90
54576;DHT22;40472;53.486;14.542;2023-02-28T14:39:14;5.00;99.90
54576;DHT22;40472;53.486;14.542;2023-02-28T14:41:42;5.00;99.90
54576;DHT22;40472;53.486;14.542;2023-02-28T14:44:23;4.90;99.90
54576;DHT22;40472;53.486;14.542;2023-02-28T14:46:57;4.90;99.90
54576;DHT22;40472;53.486;14.542;2023-02-28T14:52:21;4.80;99.90
54576;DHT22;40472;53.486;14.542;2023-02-28T14:54:55;4.80;99.90
54576;DHT22;40472;53.486;14.542;2023-02-28T14:57:29;4.90;99.90
54576;DHT22;40472;53.486;14.542;2023-02-28T15:02:48;4.80;99.90
54576;DHT22;40472;53.486;14.542;2023-02-28T15:07:43;5.00;99.90
54576;DHT22;40472;53.486;14.542;2023-02-28T15:10:20;4.80;99.90
54576;DHT22;40472;53.486;14.542;2023-02-28T15:12:55;4.80;99.90
54576;DHT22;40472;53.486;14.542;2023-02-28T15:15:28;4.80;99.90
54576;DHT22;40472;53.486;14.542;2023-02-28T15:17:57;4.70;99.90
54576;DHT22;40472;53.486;14.542;2023-02-28T15:20:25;4.30;99.90
54576;DHT22;40472;53.486;14.542;2023-02-28T15:22:53;4.40;99.90
54576;DHT22;40472;53.486;14.542;2023-02-28T15:25:21;4.40;99.90
54576;DHT22;40472;53.486;14.542;2023-02-28T15:27:53;4.30;99.90
54576;DHT22;40472;53.486;14.542;2023-02-28T15:30:29;4.10;99.90
54576;DHT22;40472;53.486;14.542;2023-02-28T15:33:03;4.10;99.90
54576;DHT22;40472;53.486;14.542;2023-02-28T15:35:32;3.90;99.90
54576;DHT22;40472;53.486;14.542;2023-02-28T15:38:18;3.80;99.90
54576;DHT22;40472;53.486;14.542;2023-02-28T15:40:46;3.70;99.90
54576;DHT22;40472;53.486;14.542;2023-02-28T15:43:33;3.60;99.90
54576;DHT22;40472;53.486;14.542;2023-02-28T15:46:12;3.50;99.90
54576;DHT22;40472;53.486;14.542;2023-02-28T15:51:33;3.30;99.90
54576;DHT22;40472;53.486;14.542;2023-02-28T15:54:04;3.10;99.90
54576;DHT22;40472;53.486;14.542;2023-02-28T15:56:38;3.00;99.90
54576;DHT22;40472;53.486;14.542;2023-02-28T15:59:30;3.00;99.90
54576;DHT22;40472;53.486;14.542;2023-02-28T16:04:28;3.00;99.90
54576;DHT22;40472;53.486;14.542;2023-02-28T16:07:00;2.80;99.90
54576;DHT22;40472;53.486;14.542;2023-02-28T16:09:27;2.70;99.90
54576;DHT22;40472;53.486;14.542;2023-02-28T16:11:55;2.70;99.90
54576;DHT22;40472;53.486;14.542;2023-02-28T16:14:25;2.50;99.90
54576;DHT22;40472;53.486;14.542;2023-02-28T16:16:55;2.40;99.90
54576;DHT22;40472;53.486;14.542;2023-02-28T16:19:22;2.40;99.90
54576;DHT22;40472;53.486;14.542;2023-02-28T16:21:48;2.30;99.90
54576;DHT22;40472;53.486;14.542;2023-02-28T16:24:14;2.20;99.90
54576;DHT22;40472;53.486;14.542;2023-02-28T16:26:42;2.10;99.90
54576;DHT22;40472;53.486;14.542;2023-02-28T16:29:15;2.10;99.90
54576;DHT22;40472;53.486;14.542;2023-02-28T16:31:43;2.00;99.90
54576;DHT22;40472;53.486;14.542;2023-02-28T16:34:08;2.00;99.90
54576;DHT22;40472;53.486;14.542;2023-02-28T16:36:34;1.80;99.90
54576;DHT22;40472;53.486;14.542;2023-02-28T16:39:00;1.70;99.90
54576;DHT22;40472;53.486;14.542;2023-02-28T16:41:28;1.50;99.90
54576;DHT22;40472;53.486;14.542;2023-02-28T16:43:56;1.40;99.90
54576;DHT22;40472;53.486;14.542;2023-02-28T16:46:33;1.40;99.90
54576;DHT22;40472;53.486;14.542;2023-02-28T16:48:59;1.30;99.90
54576;DHT22;40472;53.486;14.542;2023-02-28T16:51:26;1.20;99.90
54576;DHT22;40472;53.486;14.542;2023-02-28T16:53:52;1.00;99.90
54576;DHT22;40472;53.486;14.542;2023-02-28T16:56:21;0.80;99.90
54576;DHT22;40472;53.486;14.542;2023-02-28T16:58:49;0.70;99.90
54576;DHT22;40472;53.486;14.542;2023-02-28T17:01:16;0.70;99.90
54576;DHT22;40472;53.486;14.542;2023-02-28T17:03:42;0.80;99.90
54576;DHT22;40472;53.486;14.542;2023-02-28T17:06:17;0.80;99.90
54576;DHT22;40472;53.486;14.542;2023-02-28T17:08:44;0.80;99.90
54576;DHT22;40472;53.486;14.542;2023-02-28T17:11:10;0.80;99.90
54576;DHT22;40472;53.486;14.542;2023-02-28T17:13:36;0.80;99.90
54576;DHT22;40472;53.486;14.542;2023-02-28T17:16:02;0.70;99.90
54576;DHT22;40472;53.486;14.542;2023-02-28T17:18:28;0.70;99.90
54576;DHT22;40472;53.486;14.542;2023-02-28T17:21:00;0.60;99.90
54576;DHT22;40472;53.486;14.542;2023-02-28T17:23:25;0.60;99.90
54576;DHT22;40472;53.486;14.542;2023-02-28T17:25:51;0.70;99.90
54576;DHT22;40472;53.486;14.542;2023-02-28T17:28:23;0.70;99.90
54576;DHT22;40472;53.486;14.542;2023-02-28T17:30:49;0.70;99.90
54576;DHT22;40472;53.486;14.542;2023-02-28T17:33:15;0.70;99.90
54576;DHT22;40472;53.486;14.542;2023-02-28T17:35:41;0.80;99.90
54576;DHT22;40472;53.486;14.542;2023-02-28T17:38:16;0.80;99.90
54576;DHT22;40472;53.486;14.542;2023-02-28T17:40:42;0.80;99.90
54576;DHT22;40472;53.486;14.542;2023-02-28T17:43:09;0.90;99.90
54576;DHT22;40472;53.486;14.542;2023-02-28T17:45:35;0.90;99.90
54576;DHT22;40472;53.486;14.542;2023-02-28T17:48:02;1.00;99.90
54576;DHT22;40472;53.486;14.542;2023-02-28T17:50:28;1.00;99.90
54576;DHT22;40472;53.486;14.542;2023-02-28T17:52:54;0.90;99.90
54576;DHT22;40472;53.486;14.542;2023-02-28T17:55:20;0.90;99.90
54576;DHT22;40472;53.486;14.542;2023-02-28T17:57:46;0.80;99.90
54576;DHT22;40472;53.486;14.542;2023-02-28T18:00:16;0.80;99.90
54576;DHT22;40472;53.486;14.542;2023-02-28T18:02:43;0.80;99.90
54576;DHT22;40472;53.486;14.542;2023-02-28T18:05:10;0.80;99.90
54576;DHT22;40472;53.486;14.542;2023-02-28T18:07:38;0.80;99.90